x

Destruction Island, Wa (desw1) Weather Station

3:00am - Sat 20th Dec 2014 All times are PST. -8 hours from GMT.

  • Wind
    36mph, 39mph gusts
  • 空気 Temp 48°f
  • Sea Pressure 1002.7mb
  • Destruction Island, Wa
  • Destruction Island, Wa

More Historic Weather Station data

Upgrade to MSW Pro to gain access to the past 30 days of data for over 8000 Wavebouys and Weather Stations around the globe.

Join Pro

Comparision Forecast

View Surf forecast
   
Sat 12/20 3:00am 36 39 mph 1002.7mb 48f
2:00am 39 44 mph 1003.3mb 48f
1:00am 38 40 mph 1005mb 48f
12:00am 37 41 mph 1006.4mb 47f
Fri 12/19 11:00pm 34 38 mph 1007.4mb 48f
10:00pm 30 33 mph 1008mb 49f
9:00pm 31 34 mph 1008.6mb 48f
8:00pm 29 33 mph 1010mb 48f
7:00pm 31 34 mph 1010.4mb 48f
6:00pm 31 34 mph 1011mb 48f
5:00pm 22 23 mph 1011.7mb 49f
4:00pm 21 25 mph 1011.1mb 50f
3:00pm 28 30 mph 1011.4mb 52f
2:00pm 16 20 mph 1011.8mb 50f
1:00pm 18 21 mph 1011.7mb 49f
12:00pm 32 34 mph 1012mb 50f
11:00am 22 24 mph 1011.8mb 49f
10:00am 23 25 mph 1011.5mb 48f
9:00am 24 25 mph 1010.8mb 47f
8:00am 21 23 mph 1010mb 48f
7:00am 18 21 mph 1009.5mb 47f
6:00am 20 21 mph 1009.2mb 50f
5:00am 21 24 mph 1008.6mb 49f
4:00am 28 30 mph 1007.8mb 52f
3:00am 26 28 mph 1007.9mb 51f
2:00am 16 18 mph 1007.5mb 52f
1:00am 30 31 mph 1006.6mb 52f
12:00am 28 31 mph 1006.3mb 52f
Thu 12/18 11:00pm 24 30 mph 1005.7mb 51f
10:00pm 22 28 mph 1005.2mb 50f
9:00pm 23 24 mph 1004.9mb 50f
8:00pm 16 17 mph 1004.1mb 50f
7:00pm 24 26 mph 1003.9mb 49f
6:00pm 37 40 mph 1002.2mb 50f
5:00pm 34 39 mph 1003mb 49f
4:00pm 38 46 mph 1003.9mb 50f
3:00pm 39 44 mph 1004.6mb 51f
2:00pm 34 38 mph 1005.3mb 51f
1:00pm 37 39 mph 1006.4mb 50f
12:00pm 38 41 mph 1007mb 50f
11:00am 33 37 mph 1007.8mb 50f
10:00am 30 32 mph 1009mb 49f
9:00am 26 29 mph 1009.9mb 49f
8:00am 25 28 mph 1010.6mb 49f
7:00am 24 25 mph 1011mb 48f
6:00am 22 23 mph 1011.8mb 48f
5:00am 22 23 mph 1012mb 47f
4:00am 24 26 mph 1012.1mb 47f
3:00am 17 20 mph 1012.3mb 47f
2:00am 17 18 mph 1012.3mb 47f
1:00am 17 18 mph 1012.4mb 47f
12:00am 17 18 mph 1012.6mb 47f
Wed 12/17 11:00pm 16 17 mph 1012.5mb 47f
10:00pm 13 14 mph 1012.4mb 47f
9:00pm 13 14 mph 1012.4mb 47f
8:00pm 11 13 mph 1012.1mb 47f
7:00pm 13 15 mph 1011.9mb 48f
6:00pm 10 13 mph 1011.6mb 48f
5:00pm 8 11 mph 1011.2mb 49f
4:00pm 9 13 mph 1010.6mb 49f
3:00pm 10 13 mph 1010.2mb 49f
2:00pm 9 10 mph 1009.7mb 49f
1:00pm 8 10 mph 1010mb 49f
12:00pm 9 11 mph 1009.9mb 48f
11:00am 13 15 mph 1010mb 48f
10:00am 7 8 mph 1009.9mb 48f
9:00am 9 10 mph 1008.8mb 47f
8:00am 10 11 mph 1008.5mb 48f
7:00am 11 13 mph 1008.5mb 48f
6:00am 17 18 mph 1008.2mb 47f
5:00am 20 22 mph 1008.4mb 46f
4:00am 18 21 mph 1008.2mb 46f
3:00am 16 17 mph 1008.4mb 47f
2:00am 11 14 mph 1008.4mb 47f
1:00am 11 13 mph 1008.5mb 48f
12:00am 10 13 mph 1008.6mb 49f
Tue 12/16 11:00pm 14 16 mph 1008.6mb 50f
10:00pm 13 14 mph 1008.4mb 50f
9:00pm 15 16 mph 1008.4mb 50f
8:00pm 10 13 mph 1008.7mb 50f
7:00pm 13 14 mph 1008.8mb 50f
6:00pm 13 14 mph 1008.8mb 50f
5:00pm 17 18 mph 1008.9mb 50f
4:00pm 20 22 mph 1008.7mb 50f
3:00pm 23 24 mph 1008.3mb 49f
2:00pm 25 26 mph 1008.2mb 48f
1:00pm 25 26 mph 1008.4mb 48f